Time;durP1;ratioP1;P1;durP2;ratioP2;P2;SDS_P1;SDS_P2;PMS_P1;PMS_P2;Temp;Humidity;BMP_temperature;BMP_pressure;BME280_temperature;BME280_humidity;BME280_pressure;Samples;Min_cycle;Max_cycle;Signal;HPM_P1;HPM_P2
2022/09/26 00:01:38;;;;;;;1.35;0.77;;;15.40;85.00;;;;;;5059678;28;20033;-71
2022/09/26 00:04:14;;;;;;;1.00;0.50;;;15.40;85.00;;;;;;5059602;28;20373;-71
2022/09/26 00:06:40;;;;;;;0.85;0.85;;;15.40;85.10;;;;;;5058987;28;20055;-71
2022/09/26 00:09:07;;;;;;;2.45;0.88;;;15.40;85.20;;;;;;5059420;28;20426;-71
2022/09/26 00:11:33;;;;;;;5.80;1.25;;;15.40;85.40;;;;;;5058747;28;20032;-71
2022/09/26 00:14:03;;;;;;;0.85;0.60;;;15.40;85.30;;;;;;5059427;28;20476;-71
2022/09/26 00:16:28;;;;;;;1.83;0.82;;;15.40;85.30;;;;;;5059500;28;20048;-71
2022/09/26 00:18:56;;;;;;;4.50;1.02;;;15.40;85.20;;;;;;5058980;28;20025;-71
2022/09/26 00:21:23;;;;;;;4.55;1.15;;;15.40;85.40;;;;;;5059633;28;20063;-71
2022/09/26 00:23:49;;;;;;;2.17;1.00;;;15.40;85.50;;;;;;5059275;28;20468;-71
2022/09/26 00:26:16;;;;;;;2.50;1.15;;;15.40;85.40;;;;;;5058449;28;20436;-71
2022/09/26 00:28:42;;;;;;;5.00;1.00;;;15.40;85.60;;;;;;5059233;28;20028;-71
2022/09/26 00:31:11;;;;;;;2.83;0.82;;;15.40;85.60;;;;;;5059256;28;20048;-71
2022/09/26 00:33:36;;;;;;;1.75;0.95;;;15.40;85.50;;;;;;5057237;28;20065;-71
2022/09/26 00:36:03;;;;;;;6.22;1.55;;;15.40;85.50;;;;;;5059218;28;20097;-70
2022/09/26 00:38:30;;;;;;;0.60;0.60;;;15.40;85.60;;;;;;5059060;28;20052;-71
2022/09/26 00:40:57;;;;;;;1.50;0.77;;;15.40;85.70;;;;;;5058643;28;20024;-71
2022/09/26 00:43:33;;;;;;;4.47;1.00;;;15.30;85.80;;;;;;5057861;28;20190;-71
2022/09/26 00:46:12;;;;;;;0.52;0.30;;;15.30;86.00;;;;;;5059361;28;20059;-71
2022/09/26 00:48:40;;;;;;;1.67;0.73;;;15.30;86.10;;;;;;5058538;28;20033;-71
2022/09/26 00:51:06;;;;;;;0.30;0.30;;;15.30;86.40;;;;;;5058796;28;20044;-71
2022/09/26 00:53:37;;;;;;;1.58;1.30;;;15.20;86.50;;;;;;5059207;28;20083;-71
2022/09/26 00:56:08;;;;;;;1.92;0.73;;;15.20;86.80;;;;;;5058975;28;20557;-71
2022/09/26 00:58:46;;;;;;;1.10;0.55;;;15.20;86.90;;;;;;5059163;28;20052;-70
2022/09/26 01:01:13;;;;;;;3.25;1.15;;;15.20;87.20;;;;;;5058357;28;20384;-71
2022/09/26 01:03:43;;;;;;;0.38;0.38;;;15.10;87.40;;;;;;5057844;28;20569;-71
2022/09/26 01:06:09;;;;;;;0.75;0.75;;;15.10;87.40;;;;;;5059031;28;20061;-71
2022/09/26 01:08:41;;;;;;;6.05;1.20;;;15.10;87.40;;;;;;5058521;28;20039;-71
2022/09/26 01:11:08;;;;;;;2.45;0.75;;;15.10;87.80;;;;;;5055098;28;20029;-71
2022/09/26 01:13:35;;;;;;;1.52;0.73;;;15.10;87.70;;;;;;5055977;28;20045;-70
2022/09/26 01:16:02;;;;;;;1.60;0.85;;;15.10;87.60;;;;;;5053623;28;20051;-70
2022/09/26 01:18:30;;;;;;;0.47;0.47;;;15.10;87.60;;;;;;5055870;28;20047;-71
2022/09/26 01:21:26;;;;;;;3.53;0.70;;;15.10;87.70;;;;;;5055639;28;20055;-71
2022/09/26 01:24:26;;;;;;;2.33;0.73;;;15.00;87.80;;;;;;5055031;28;20029;-71
2022/09/26 01:27:00;;;;;;;1.50;0.90;;;15.10;88.00;;;;;;5054144;28;20025;-71
2022/09/26 01:29:55;;;;;;;2.53;0.75;;;15.00;88.00;;;;;;5053551;28;20025;-71
2022/09/26 01:32:58;;;;;;;5.50;1.13;;;15.00;87.90;;;;;;5053817;28;20404;-70
2022/09/26 01:35:42;;;;;;;0.68;0.63;;;15.00;88.10;;;;;;5054278;28;20033;-71
2022/09/26 01:38:14;;;;;;;;;;;15.00;88.00;;;;;;5053664;28;20091;-71
2022/09/26 01:41:08;;;;;;;7.10;0.85;;;15.00;88.00;;;;;;5055244;28;20276;-71
2022/09/26 01:43:39;;;;;;;5.65;1.58;;;15.00;88.00;;;;;;5054330;28;20131;-70
2022/09/26 01:46:34;;;;;;;6.45;1.10;;;15.00;88.30;;;;;;5053915;28;20025;-70
2022/09/26 01:49:26;;;;;;;0.40;0.40;;;14.90;88.30;;;;;;5053863;28;20115;-71
2022/09/26 01:52:02;;;;;;;3.63;1.00;;;14.90;88.30;;;;;;5052854;28;20520;-71
2022/09/26 01:54:35;;;;;;;1.58;0.93;;;14.90;88.60;;;;;;5055009;28;20071;-71
2022/09/26 01:57:05;;;;;;;3.40;0.75;;;14.90;88.80;;;;;;5052965;28;20120;-70
2022/09/26 01:59:44;;;;;;;0.68;0.68;;;14.90;88.90;;;;;;5053652;28;20472;-71
2022/09/26 02:02:18;;;;;;;0.80;0.80;;;14.90;89.00;;;;;;5053552;28;20025;-71
2022/09/26 02:04:47;;;;;;;0.40;0.40;;;14.90;89.30;;;;;;5054389;28;20029;-71
2022/09/26 02:07:23;;;;;;;1.67;0.65;;;14.80;89.40;;;;;;5053421;28;20480;-70
2022/09/26 02:10:04;;;;;;;2.80;1.02;;;14.80;89.60;;;;;;5053393;28;20033;-71
2022/09/26 02:12:35;;;;;;;0.70;0.70;;;14.80;89.80;;;;;;5052806;28;20029;-70
2022/09/26 02:15:06;;;;;;;8.27;1.33;;;14.70;89.80;;;;;;5053208;28;20159;-70
2022/09/26 02:17:37;;;;;;;0.40;0.40;;;14.70;90.00;;;;;;5053225;28;20060;-71
2022/09/26 02:20:14;;;;;;;3.05;0.80;;;14.70;90.00;;;;;;5052600;28;20400;-70
2022/09/26 02:22:42;;;;;;;2.63;1.10;;;14.60;90.30;;;;;;5051909;28;20057;-70
2022/09/26 02:25:09;;;;;;;4.30;0.88;;;14.70;90.10;;;;;;5053609;28;20052;-70
2022/09/26 02:27:37;;;;;;;1.60;0.80;;;14.60;90.10;;;;;;5053054;28;20029;-70
2022/09/26 02:30:07;;;;;;;2.03;0.95;;;14.70;90.10;;;;;;5054319;28;20060;-71
2022/09/26 02:32:33;;;;;;;1.25;0.82;;;14.60;90.10;;;;;;5052377;28;20032;-70
2022/09/26 02:35:52;;;;;;;2.42;1.10;;;14.60;90.20;;;;;;5052901;28;20037;-70
2022/09/26 02:37:48;;;;;;;5.38;1.05;;;14.60;90.20;;;;;;5052889;28;20044;-70
2022/09/26 02:40:14;;;;;;;2.60;1.15;;;14.60;90.30;;;;;;5052144;28;20051;-70
2022/09/26 02:43:00;;;;;;;1.50;0.80;;;14.50;90.30;;;;;;5044833;28;20028;-70
2022/09/26 02:45:40;;;;;;;1.25;0.82;;;14.50;90.30;;;;;;5053757;28;20029;-70
2022/09/26 02:48:21;;;;;;;0.55;0.55;;;14.50;90.40;;;;;;5053230;28;20035;-70
2022/09/26 02:51:25;;;;;;;4.05;1.52;;;14.50;90.40;;;;;;5052461;28;20028;-70
2022/09/26 02:54:12;;;;;;;3.00;1.35;;;14.50;90.40;;;;;;5011272;28;20038;-70
2022/09/26 02:57:13;;;;;;;0.50;0.50;;;14.50;90.50;;;;;;4995515;28;20390;-70
2022/09/26 03:00:00;;;;;;;2.50;0.95;;;14.50;90.60;;;;;;5044119;28;20041;-70
2022/09/26 03:02:39;;;;;;;1.10;1.00;;;14.50;90.60;;;;;;5051650;28;20032;-70
2022/09/26 03:05:19;;;;;;;3.72;1.25;;;14.50;90.60;;;;;;5052484;28;20033;-70
2022/09/26 03:07:56;;;;;;;2.72;1.10;;;14.40;90.70;;;;;;5053077;28;20040;-70
2022/09/26 03:10:27;;;;;;;1.25;1.10;;;14.50;90.70;;;;;;5052336;28;20021;-70
2022/09/26 03:12:55;;;;;;;2.65;1.08;;;14.50;90.70;;;;;;5052124;28;20029;-70
2022/09/26 03:15:22;;;;;;;4.45;1.35;;;14.50;90.60;;;;;;5052714;28;20025;-71
2022/09/26 03:17:55;;;;;;;4.28;1.50;;;14.50;90.70;;;;;;5051846;28;20044;-70
2022/09/26 03:20:22;;;;;;;;;;;14.50;90.60;;;;;;5052595;28;20373;-70
2022/09/26 03:22:51;;;;;;;3.42;1.30;;;14.50;90.40;;;;;;5051402;28;19909;-70
2022/09/26 03:25:23;;;;;;;0.98;0.60;;;14.60;90.40;;;;;;5051923;28;20029;-70
2022/09/26 03:27:57;;;;;;;2.03;0.93;;;14.50;90.40;;;;;;5052147;28;20103;-70
2022/09/26 03:30:24;;;;;;;2.42;1.48;;;14.60;90.40;;;;;;5051408;28;20040;-70
2022/09/26 03:33:09;;;;;;;2.65;1.50;;;14.50;90.40;;;;;;5052664;28;20053;-70
2022/09/26 03:35:35;;;;;;;1.55;1.15;;;14.60;90.50;;;;;;5050934;28;20541;-70
2022/09/26 03:38:00;;;;;;;1.83;1.20;;;14.50;90.40;;;;;;5053134;28;20064;-70
2022/09/26 03:40:32;;;;;;;1.13;0.88;;;14.50;90.50;;;;;;5051824;28;20025;-70
2022/09/26 03:43:23;;;;;;;5.78;1.75;;;14.50;90.50;;;;;;5052298;28;20033;-70
2022/09/26 03:45:50;;;;;;;2.67;1.35;;;14.50;90.50;;;;;;5052974;28;20025;-70
2022/09/26 03:48:20;;;;;;;0.85;0.73;;;14.50;90.60;;;;;;5051763;28;20033;-70
2022/09/26 03:50:46;;;;;;;1.88;1.50;;;14.50;90.60;;;;;;5050731;28;20086;-70
2022/09/26 03:53:12;;;;;;;0.40;0.40;;;14.50;90.70;;;;;;5051468;28;20052;-70
2022/09/26 03:55:38;;;;;;;1.50;1.05;;;14.50;90.70;;;;;;5053129;28;20032;-70
2022/09/26 03:58:04;;;;;;;6.30;2.05;;;14.50;90.60;;;;;;5051142;28;20554;-70
2022/09/26 04:00:40;;;;;;;1.83;1.10;;;14.40;90.70;;;;;;5051543;28;20025;-70
2022/09/26 04:03:06;;;;;;;6.53;1.77;;;14.50;90.70;;;;;;5051621;28;20028;-70
2022/09/26 04:05:38;;;;;;;3.17;1.33;;;14.40;90.70;;;;;;5050929;28;20028;-70
2022/09/26 04:08:05;;;;;;;3.20;1.08;;;14.50;90.70;;;;;;5051547;28;20029;-70
2022/09/26 04:10:31;;;;;;;2.10;0.98;;;14.50;90.70;;;;;;5051106;28;20028;-69
2022/09/26 04:12:57;;;;;;;5.18;1.13;;;14.50;90.60;;;;;;5053104;28;20035;-70
2022/09/26 04:15:28;;;;;;;3.88;1.00;;;14.50;90.60;;;;;;5051360;28;20434;-70
2022/09/26 04:18:04;;;;;;;4.97;2.00;;;14.50;90.60;;;;;;5050709;28;20032;-70
2022/09/26 04:20:30;;;;;;;4.22;2.47;;;14.50;90.70;;;;;;5051404;28;20091;-70
2022/09/26 04:22:57;;;;;;;12.10;1.52;;;14.50;90.70;;;;;;5051412;28;20044;-70
2022/09/26 04:25:23;;;;;;;3.50;1.48;;;14.50;90.60;;;;;;5050710;28;20468;-70
2022/09/26 04:27:49;;;;;;;5.07;1.92;;;14.50;90.60;;;;;;5051284;28;20037;-70
2022/09/26 04:30:15;;;;;;;2.47;0.85;;;14.40;90.60;;;;;;5052562;28;20065;-70
2022/09/26 04:32:52;;;;;;;4.75;1.63;;;14.50;90.60;;;;;;5050615;28;20029;-70
2022/09/26 04:35:24;;;;;;;3.90;2.20;;;14.50;90.60;;;;;;5052516;28;20048;-70
2022/09/26 04:37:53;;;;;;;1.38;1.10;;;14.50;90.80;;;;;;5050786;28;20039;-70
2022/09/26 04:40:19;;;;;;;4.32;2.53;;;14.50;90.60;;;;;;5050515;28;20029;-70
2022/09/26 04:42:57;;;;;;;5.18;2.28;;;14.40;90.80;;;;;;5051302;28;20025;-70
2022/09/26 04:45:24;;;;;;;7.72;2.58;;;14.40;90.70;;;;;;5053060;28;20033;-70
2022/09/26 04:47:50;;;;;;;2.70;1.58;;;14.50;90.80;;;;;;5054273;28;20037;-70
2022/09/26 04:50:35;;;;;;;4.32;1.88;;;14.40;90.70;;;;;;5048282;28;20037;-69
2022/09/26 04:53:06;;;;;;;2.35;1.30;;;14.40;90.80;;;;;;5054071;28;20140;-70
2022/09/26 04:55:35;;;;;;;1.42;1.23;;;14.40;90.80;;;;;;5054800;28;20021;-70
2022/09/26 04:58:01;;;;;;;3.88;1.40;;;14.40;90.80;;;;;;5054859;28;20025;-70
2022/09/26 05:00:28;;;;;;;5.80;1.85;;;14.30;90.90;;;;;;5054338;28;20025;-70
2022/09/26 05:03:00;;;;;;;1.08;0.95;;;14.30;91.00;;;;;;5054661;28;20032;-70
2022/09/26 05:05:30;;;;;;;2.40;1.40;;;14.30;91.20;;;;;;5054650;28;20033;-70
2022/09/26 05:07:56;;;;;;;4.85;0.82;;;14.30;91.00;;;;;;5055070;28;20085;-70
2022/09/26 05:10:23;;;;;;;6.68;2.00;;;14.30;91.10;;;;;;5054606;28;20032;-69
2022/09/26 05:13:00;;;;;;;1.05;0.93;;;14.30;91.10;;;;;;5054727;28;20033;-70
2022/09/26 05:15:26;;;;;;;2.90;1.55;;;14.30;91.10;;;;;;5053787;28;20025;-70
2022/09/26 05:17:59;;;;;;;8.82;1.40;;;14.30;91.20;;;;;;5054262;28;20037;-70
2022/09/26 05:20:28;;;;;;;1.13;1.00;;;14.30;91.20;;;;;;5054455;28;20021;-69
2022/09/26 05:23:00;;;;;;;2.33;1.50;;;14.20;91.30;;;;;;5055015;28;20400;-69
2022/09/26 05:28:14;;;;;;;2.72;1.48;;;14.20;91.50;;;;;;5053504;28;20041;-69
2022/09/26 05:30:42;;;;;;;3.72;1.90;;;14.20;91.40;;;;;;5054197;28;20071;-70
2022/09/26 05:33:09;;;;;;;1.00;0.68;;;14.20;91.50;;;;;;5054065;28;20036;-69
2022/09/26 05:35:35;;;;;;;2.75;1.45;;;14.20;91.50;;;;;;5054610;28;20033;-70
2022/09/26 05:38:03;;;;;;;2.05;1.67;;;14.20;91.50;;;;;;5053955;28;20103;-69
2022/09/26 05:43:15;;;;;;;4.38;2.08;;;14.10;91.50;;;;;;5053263;28;20033;-70
2022/09/26 05:45:41;;;;;;;2.78;1.45;;;14.10;91.60;;;;;;5053914;28;20503;-70
2022/09/26 05:48:13;;;;;;;3.03;1.73;;;14.10;91.60;;;;;;5053900;28;20036;-70
2022/09/26 05:50:38;;;;;;;1.45;1.00;;;14.10;91.60;;;;;;5052779;28;20040;-70
2022/09/26 05:53:04;;;;;;;7.55;1.52;;;14.10;91.60;;;;;;5053445;28;20432;-70
2022/09/26 05:55:32;;;;;;;2.53;1.35;;;14.10;91.60;;;;;;5054551;28;20380;-70
2022/09/26 05:58:36;;;;;;;4.10;1.60;;;14.10;91.70;;;;;;5013060;28;20073;-69
2022/09/26 06:01:15;;;;;;;3.00;1.70;;;14.00;91.70;;;;;;5050199;28;20495;-69
2022/09/26 06:03:43;;;;;;;1.65;1.05;;;14.10;91.90;;;;;;5052903;28;20032;-70
2022/09/26 06:06:19;;;;;;;1.60;1.50;;;14.00;91.80;;;;;;5053599;28;20033;-70
2022/09/26 06:08:46;;;;;;;5.45;1.92;;;14.00;91.80;;;;;;5053568;28;20028;-70
2022/09/26 06:11:28;;;;;;;1.58;1.20;;;14.00;91.80;;;;;;5054067;28;20032;-70
2022/09/26 06:13:54;;;;;;;7.28;1.77;;;14.00;91.90;;;;;;5054447;28;20033;-70
2022/09/26 06:16:20;;;;;;;0.70;0.70;;;14.00;91.90;;;;;;5052761;28;20420;-70
2022/09/26 06:18:49;;;;;;;5.95;2.50;;;13.90;91.90;;;;;;5052718;28;20048;-70
2022/09/26 06:21:16;;;;;;;1.23;1.13;;;14.00;92.00;;;;;;5053205;28;20373;-70
2022/09/26 06:23:43;;;;;;;2.13;1.00;;;14.00;92.00;;;;;;5053241;28;20022;-70
2022/09/26 06:26:27;;;;;;;4.00;1.92;;;14.00;92.00;;;;;;5052449;28;20032;-70
2022/09/26 06:28:59;;;;;;;3.47;1.63;;;14.00;92.00;;;;;;5053058;28;20025;-70
2022/09/26 06:31:27;;;;;;;2.58;1.70;;;14.00;92.00;;;;;;5052355;28;20025;-69
2022/09/26 06:34:08;;;;;;;6.57;1.85;;;13.90;92.00;;;;;;5054437;28;20033;-70
2022/09/26 06:36:54;;;;;;;6.75;1.42;;;14.00;92.00;;;;;;5046488;28;20090;-69
2022/09/26 06:39:20;;;;;;;2.65;1.35;;;14.00;92.00;;;;;;5052221;28;20112;-70
2022/09/26 06:41:46;;;;;;;2.30;1.25;;;14.00;92.30;;;;;;5052804;28;20391;-70
2022/09/26 06:44:29;;;;;;;3.70;1.45;;;13.90;92.00;;;;;;5052881;28;20029;-70
2022/09/26 06:47:28;;;;;;;3.10;1.88;;;13.90;92.30;;;;;;5051934;28;20464;-69
2022/09/26 06:50:21;;;;;;;4.30;2.07;;;13.90;92.10;;;;;;5037927;28;20410;-69
2022/09/26 06:52:51;;;;;;;1.23;1.02;;;13.90;92.10;;;;;;5051792;28;20352;-69
2022/09/26 06:55:17;;;;;;;1.50;1.05;;;13.80;92.10;;;;;;5052650;28;20028;-70
2022/09/26 06:57:43;;;;;;;4.57;2.08;;;13.80;92.20;;;;;;5052279;28;20037;-69
2022/09/26 07:00:14;;;;;;;4.53;1.65;;;13.80;92.20;;;;;;5051842;28;20056;-70
2022/09/26 07:02:58;;;;;;;2.28;1.60;;;13.80;92.20;;;;;;5052421;28;20029;-69
2022/09/26 07:05:55;;;;;;;4.88;1.48;;;13.80;92.10;;;;;;5049792;28;20484;-69
2022/09/26 07:08:21;;;;;;;4.47;1.35;;;13.80;92.10;;;;;;5051007;28;20086;-69
2022/09/26 07:10:47;;;;;;;3.47;1.60;;;13.80;92.10;;;;;;5052330;28;20123;-70
2022/09/26 07:13:21;;;;;;;2.13;1.50;;;13.80;92.20;;;;;;5052373;28;20488;-70
2022/09/26 07:15:47;;;;;;;6.28;1.70;;;13.80;92.20;;;;;;5051725;28;20041;-70
2022/09/26 07:18:25;;;;;;;2.65;1.58;;;13.80;92.20;;;;;;5052189;28;20033;-69
2022/09/26 07:21:03;;;;;;;1.95;1.33;;;13.80;92.20;;;;;;5051582;28;20033;-70
2022/09/26 07:23:57;;;;;;;2.50;1.63;;;13.70;92.30;;;;;;5037217;28;20392;-70
2022/09/26 07:26:23;;;;;;;3.53;1.90;;;13.70;92.30;;;;;;5051636;28;20071;-69
2022/09/26 07:28:51;;;;;;;3.10;1.83;;;13.70;92.30;;;;;;5052549;28;20025;-70
2022/09/26 07:31:18;;;;;;;3.40;1.48;;;13.70;92.30;;;;;;5052051;28;20028;-69
2022/09/26 07:34:02;;;;;;;2.78;1.75;;;13.80;92.40;;;;;;5051905;28;20103;-70
2022/09/26 07:36:30;;;;;;;3.75;1.88;;;13.80;92.30;;;;;;5051038;28;20615;-70
2022/09/26 07:38:55;;;;;;;5.53;1.83;;;13.70;92.40;;;;;;5051885;28;20119;-70
2022/09/26 07:41:22;;;;;;;1.67;1.33;;;13.70;92.40;;;;;;5051816;28;20057;-69
2022/09/26 07:43:48;;;;;;;1.95;1.20;;;13.70;92.40;;;;;;5051113;28;20115;-69
2022/09/26 07:51:47;;;;;;;2.28;1.42;;;13.70;92.40;;;;;;5052462;28;20056;-70
2022/09/26 07:54:17;;;;;;;2.30;1.60;;;13.80;92.40;;;;;;5051738;28;20032;-70
2022/09/26 07:57:18;;;;;;;2.72;1.58;;;13.70;92.40;;;;;;5010398;28;20096;-70
2022/09/26 08:00:06;;;;;;;6.93;2.28;;;13.80;92.50;;;;;;5048341;28;20029;-70
2022/09/26 08:02:59;;;;;;;2.00;1.63;;;13.70;92.50;;;;;;5051055;28;20033;-69
2022/09/26 08:05:25;;;;;;;4.30;2.08;;;13.70;92.50;;;;;;5051567;28;20029;-70
2022/09/26 08:07:51;;;;;;;2.45;1.08;;;13.70;92.50;;;;;;5051554;28;20433;-70
2022/09/26 08:10:37;;;;;;;1.30;1.20;;;13.80;92.50;;;;;;5051848;28;20064;-69
2022/09/26 08:13:21;;;;;;;2.38;1.67;;;13.80;92.50;;;;;;5052837;28;20073;-69
2022/09/26 08:16:08;;;;;;;2.97;1.10;;;13.80;92.40;;;;;;5051402;28;20053;-69
2022/09/26 08:18:38;;;;;;;2.72;1.48;;;13.80;92.40;;;;;;5051285;28;20025;-69
2022/09/26 08:21:05;;;;;;;1.48;1.15;;;13.80;92.40;;;;;;5055377;28;20037;-70
2022/09/26 08:23:32;;;;;;;1.73;1.38;;;13.80;92.40;;;;;;5055488;28;20388;-69
2022/09/26 08:26:20;;;;;;;4.93;1.60;;;13.80;92.40;;;;;;5056984;28;20083;-69
2022/09/26 08:28:49;;;;;;;2.28;1.70;;;13.80;92.40;;;;;;5055344;28;20496;-70
2022/09/26 08:31:16;;;;;;;3.05;1.60;;;13.80;92.40;;;;;;5054528;28;20074;-69
2022/09/26 08:33:43;;;;;;;2.00;1.45;;;13.80;92.50;;;;;;5055218;28;20036;-70
2022/09/26 08:36:14;;;;;;;2.63;1.63;;;13.80;92.50;;;;;;5054999;28;20040;-69
2022/09/26 08:39:01;;;;;;;2.17;1.30;;;13.80;92.50;;;;;;5051766;28;20037;-70
2022/09/26 08:41:36;;;;;;;2.20;1.35;;;13.80;92.50;;;;;;5056900;28;20048;-70
2022/09/26 08:45:40;;;;;;;7.53;1.90;;;13.80;92.50;;;;;;5055604;28;20140;-71
2022/09/26 08:47:48;;;;;;;2.70;1.35;;;13.80;92.50;;;;;;5054256;28;20859;-71
2022/09/26 08:50:46;;;;;;;6.65;1.33;;;13.80;92.50;;;;;;5055506;28;20051;-71
2022/09/26 08:53:46;;;;;;;2.65;1.40;;;13.90;92.50;;;;;;5053909;28;20052;-71
2022/09/26 08:56:20;;;;;;;35.55;2.30;;;13.90;92.50;;;;;;5051831;28;20135;-71
2022/09/26 08:58:51;;;;;;;2.45;1.38;;;13.90;92.50;;;;;;5053851;28;20021;-71
2022/09/26 09:01:28;;;;;;;5.57;1.83;;;13.80;92.50;;;;;;5054450;28;20542;-70
2022/09/26 09:04:19;;;;;;;3.90;1.15;;;13.90;92.60;;;;;;5054652;28;20033;-70
2022/09/26 09:06:45;;;;;;;2.15;1.40;;;13.90;92.50;;;;;;5053893;28;20033;-70
2022/09/26 09:09:15;;;;;;;2.40;1.58;;;13.90;92.50;;;;;;5054585;28;20115;-69
2022/09/26 09:12:23;;;;;;;2.13;1.08;;;13.90;92.50;;;;;;5052259;28;20083;-70
2022/09/26 09:15:00;;;;;;;0.82;0.82;;;13.90;92.50;;;;;;5052430;28;20411;-70
2022/09/26 09:17:44;;;;;;;4.43;1.23;;;13.90;92.50;;;;;;5054362;28;20124;-70
2022/09/26 09:20:52;;;;;;;4.45;1.25;;;13.90;92.50;;;;;;5053710;28;20028;-70
2022/09/26 09:23:55;;;;;;;2.75;1.35;;;13.90;92.50;;;;;;5055413;28;20067;-70
2022/09/26 09:26:39;;;;;;;2.55;1.17;;;14.00;92.60;;;;;;5054181;28;20035;-70
2022/09/26 09:29:32;;;;;;;5.55;1.88;;;14.00;92.60;;;;;;5053586;28;20507;-70
2022/09/26 09:32:21;;;;;;;2.45;1.27;;;14.00;92.70;;;;;;5055222;28;20132;-70
2022/09/26 09:35:00;;;;;;;5.00;1.27;;;14.00;92.60;;;;;;5053429;28;20109;-70
2022/09/26 09:37:50;;;;;;;3.13;1.35;;;14.00;92.60;;;;;;5063963;28;20049;-69
2022/09/26 09:40:39;;;;;;;3.70;0.98;;;14.00;92.60;;;;;;5054093;28;20029;-70
2022/09/26 09:43:44;;;;;;;1.63;1.33;;;14.00;92.60;;;;;;5053351;28;20025;-70
2022/09/26 09:46:19;;;;;;;2.45;1.25;;;14.00;92.70;;;;;;5053875;28;20040;-71
2022/09/26 09:48:52;;;;;;;0.98;0.73;;;14.00;92.60;;;;;;5053225;28;20068;-70
2022/09/26 09:51:26;;;;;;;1.60;1.42;;;14.10;92.60;;;;;;5053444;28;20036;-71
2022/09/26 09:54:00;;;;;;;5.40;1.50;;;14.10;92.70;;;;;;5053747;28;20352;-70
2022/09/26 09:57:01;;;;;;;1.35;1.25;;;14.00;92.70;;;;;;5052969;28;20389;-69
2022/09/26 09:59:51;;;;;;;2.10;1.48;;;14.10;92.70;;;;;;5053523;28;20025;-69
2022/09/26 10:02:49;;;;;;;2.17;1.35;;;14.10;92.70;;;;;;5052957;28;20068;-73
2022/09/26 10:05:35;;;;;;;1.15;0.95;;;14.10;92.60;;;;;;5053368;28;20464;-72
2022/09/26 10:08:03;;;;;;;1.88;1.35;;;14.20;92.70;;;;;;5054825;28;20029;-71
2022/09/26 10:11:11;;;;;;;1.23;1.05;;;14.10;92.70;;;;;;5054100;28;20079;-70
2022/09/26 10:14:02;;;;;;;3.60;1.17;;;14.10;92.70;;;;;;5053523;28;20044;-69
2022/09/26 10:17:18;;;;;;;4.15;1.13;;;14.10;92.70;;;;;;5053977;28;20048;-70
2022/09/26 10:20:34;;;;;;;0.95;0.82;;;14.10;92.80;;;;;;5053350;28;20053;-68
2022/09/26 10:23:05;;;;;;;2.13;1.30;;;14.10;92.90;;;;;;5053162;28;20029;-70
2022/09/26 10:25:30;;;;;;;3.00;1.77;;;14.10;92.90;;;;;;5052522;28;20119;-69
2022/09/26 10:27:58;;;;;;;1.45;1.20;;;14.10;92.80;;;;;;5053138;28;20544;-69
2022/09/26 10:30:31;;;;;;;2.60;1.48;;;14.10;92.90;;;;;;5052643;28;20021;-69
2022/09/26 10:33:23;;;;;;;2.50;1.67;;;14.20;92.90;;;;;;5053052;28;20064;-64
2022/09/26 10:35:57;;;;;;;5.72;1.38;;;14.20;92.90;;;;;;5052937;28;20056;-70
2022/09/26 10:38:27;;;;;;;2.00;1.27;;;14.20;92.90;;;;;;5052152;28;20434;-69
2022/09/26 10:41:06;;;;;;;2.20;1.55;;;14.20;92.90;;;;;;5052929;28;20495;-69
2022/09/26 10:43:38;;;;;;;2.42;1.67;;;14.20;93.00;;;;;;5051775;28;20495;-69
2022/09/26 10:46:16;;;;;;;2.70;1.63;;;14.30;93.10;;;;;;5052128;28;20468;-70
2022/09/26 10:49:02;;;;;;;2.60;1.27;;;14.20;93.10;;;;;;5051738;28;20039;-71
2022/09/26 10:51:59;;;;;;;6.95;0.98;;;14.20;93.10;;;;;;5052793;28;20209;-68
2022/09/26 10:54:39;;;;;;;2.17;1.48;;;14.30;93.20;;;;;;5051855;28;20040;-68
2022/09/26 10:57:08;;;;;;;10.93;1.92;;;14.30;93.30;;;;;;5053504;28;20064;-69
2022/09/26 10:59:38;;;;;;;3.45;1.52;;;14.30;93.40;;;;;;5051826;28;20075;-69
2022/09/26 11:02:08;;;;;;;3.15;1.05;;;14.30;93.50;;;;;;5053752;28;20488;-69
2022/09/26 11:07:57;;;;;;;4.68;1.67;;;14.30;93.60;;;;;;5052942;28;20037;-69
2022/09/26 11:10:40;;;;;;;7.15;1.75;;;14.40;93.70;;;;;;5052358;28;20029;-69
2022/09/26 11:13:23;;;;;;;1.17;0.98;;;14.40;93.80;;;;;;5051611;28;20481;-69
2022/09/26 11:16:06;;;;;;;1.67;1.58;;;14.40;93.90;;;;;;5052159;28;20082;-68
2022/09/26 11:18:45;;;;;;;2.40;1.20;;;14.40;93.90;;;;;;5052467;28;20484;-69
2022/09/26 11:21:33;;;;;;;1.40;1.30;;;14.40;93.80;;;;;;5052820;28;20116;-69
2022/09/26 11:24:21;;;;;;;3.22;2.15;;;14.40;93.90;;;;;;5052063;28;20040;-69
2022/09/26 11:27:00;;;;;;;1.30;1.20;;;14.50;93.90;;;;;;5051375;28;20030;-69
2022/09/26 11:30:00;;;;;;;6.32;1.02;;;14.50;93.90;;;;;;5053355;28;20025;-69
2022/09/26 11:32:41;;;;;;;3.10;1.50;;;14.50;93.80;;;;;;5052007;28;20047;-68
2022/09/26 11:35:50;;;;;;;2.72;1.70;;;14.50;93.80;;;;;;5052615;28;20404;-69
2022/09/26 11:38:37;;;;;;;4.28;1.80;;;14.50;93.80;;;;;;5046721;28;20147;-68
2022/09/26 11:41:35;;;;;;;1.70;1.55;;;14.50;93.90;;;;;;5050969;28;20052;-69
2022/09/26 11:44:31;;;;;;;3.92;1.55;;;14.50;93.90;;;;;;5051876;28;20021;-68
2022/09/26 11:47:29;;;;;;;2.38;1.33;;;14.60;93.90;;;;;;5055022;28;20047;-68
2022/09/26 11:50:26;;;;;;;0.70;0.70;;;14.60;93.80;;;;;;5051194;28;20071;-68
2022/09/26 11:53:39;;;;;;;2.22;1.60;;;14.60;93.80;;;;;;5043764;28;20049;-68
2022/09/26 11:56:16;;;;;;;1.63;1.02;;;14.60;93.90;;;;;;5052178;28;20542;-68
2022/09/26 11:58:53;;;;;;;6.45;1.23;;;14.60;93.80;;;;;;5052894;28;20537;-69
2022/09/26 12:01:53;;;;;;;1.45;0.93;;;14.60;93.90;;;;;;5052912;28;20029;-68
2022/09/26 12:04:31;;;;;;;2.72;1.25;;;14.60;94.00;;;;;;5053090;28;20033;-68
2022/09/26 12:07:11;;;;;;;1.23;1.13;;;14.60;94.00;;;;;;5053135;28;20068;-69
2022/09/26 12:10:04;;;;;;;2.53;1.10;;;14.60;94.00;;;;;;5052338;28;20044;-69
2022/09/26 12:12:56;;;;;;;1.05;0.98;;;14.60;94.00;;;;;;5052794;28;20037;-69
2022/09/26 12:15:40;;;;;;;1.38;1.05;;;14.60;94.10;;;;;;5052837;28;20037;-69
2022/09/26 12:18:12;;;;;;;1.40;1.30;;;14.60;94.10;;;;;;5052338;28;20044;-69
2022/09/26 12:20:43;;;;;;;1.30;1.10;;;14.60;94.20;;;;;;5052671;28;20041;-69
2022/09/26 12:23:19;;;;;;;1.65;1.25;;;14.60;94.30;;;;;;5052263;28;20029;-68
2022/09/26 12:26:08;;;;;;;1.55;1.05;;;14.60;94.40;;;;;;5052869;28;20083;-68
2022/09/26 12:28:49;;;;;;;2.03;1.48;;;14.60;94.50;;;;;;5052650;28;20029;-69
2022/09/26 12:31:26;;;;;;;1.98;1.38;;;14.60;94.50;;;;;;5052125;28;20041;-69
2022/09/26 12:34:19;;;;;;;1.75;1.17;;;14.50;94.60;;;;;;5052854;28;20051;-68
2022/09/26 12:37:19;;;;;;;0.85;0.85;;;14.50;94.70;;;;;;5052622;28;20109;-69
2022/09/26 12:39:51;;;;;;;2.40;1.55;;;14.50;94.70;;;;;;5036622;28;20071;-69
2022/09/26 12:42:40;;;;;;;1.58;1.30;;;14.50;94.80;;;;;;5052597;28;20112;-69
2022/09/26 12:45:05;;;;;;;1.45;1.17;;;14.50;94.80;;;;;;5051739;28;20033;-69
2022/09/26 12:48:11;;;;;;;1.38;1.27;;;14.50;94.80;;;;;;5052324;28;20086;-69
2022/09/26 12:50:54;;;;;;;1.23;1.13;;;14.50;95.00;;;;;;5052280;28;20138;-69
2022/09/26 12:53:52;;;;;;;0.68;0.65;;;14.50;95.10;;;;;;5051574;28;20484;-68
2022/09/26 12:56:25;;;;;;;1.42;1.33;;;14.60;95.20;;;;;;5052473;28;20427;-69
2022/09/26 12:59:11;;;;;;;1.10;1.00;;;14.50;95.30;;;;;;5052033;28;20033;-69
2022/09/26 13:01:57;;;;;;;0.85;0.85;;;14.50;95.40;;;;;;5049746;28;20485;-69
2022/09/26 13:05:02;;;;;;;1.42;1.33;;;14.50;95.60;;;;;;5050383;28;20115;-69
2022/09/26 13:07:53;;;;;;;0.95;0.93;;;14.50;95.70;;;;;;5052810;28;20051;-69
2022/09/26 13:10:35;;;;;;;1.20;1.10;;;14.50;95.70;;;;;;5055037;28;20044;-69
2022/09/26 13:13:23;;;;;;;1.10;1.00;;;14.50;95.80;;;;;;5053683;28;20029;-71
2022/09/26 13:16:14;;;;;;;1.05;0.98;;;14.50;95.90;;;;;;5055757;28;20079;-69
2022/09/26 13:18:47;;;;;;;1.30;1.20;;;14.50;95.80;;;;;;5055750;28;20513;-69
2022/09/26 13:21:18;;;;;;;0.97;0.97;;;14.50;95.80;;;;;;5054557;28;20450;-69
2022/09/26 13:23:59;;;;;;;2.35;1.40;;;14.60;95.90;;;;;;5055451;28;20752;-69
2022/09/26 13:26:30;;;;;;;0.90;0.90;;;14.60;95.90;;;;;;5054767;28;20041;-69
2022/09/26 13:29:04;;;;;;;2.03;1.40;;;14.70;95.90;;;;;;5055457;28;20029;-69
2022/09/26 13:32:00;;;;;;;0.70;0.70;;;14.70;95.90;;;;;;5055706;28;20047;-70
2022/09/26 13:34:40;;;;;;;1.20;1.10;;;14.70;95.90;;;;;;5051334;28;20033;-68
2022/09/26 13:37:53;;;;;;;2.38;1.15;;;14.70;96.00;;;;;;5055421;28;20044;-70
2022/09/26 13:40:46;;;;;;;6.43;1.10;;;14.70;95.90;;;;;;5054856;28;20106;-70
2022/09/26 13:43:15;;;;;;;1.30;1.20;;;14.70;95.90;;;;;;5055505;28;20036;-68
2022/09/26 13:45:49;;;;;;;1.38;1.13;;;14.80;96.00;;;;;;5055450;28;20060;-68
2022/09/26 13:48:23;;;;;;;;;;;14.80;96.00;;;;;;5054602;28;20033;-68
2022/09/26 13:50:54;;;;;;;1.58;1.25;;;14.80;96.10;;;;;;5055061;28;19958;-68
2022/09/26 13:53:43;;;;;;;1.17;1.10;;;14.80;96.10;;;;;;5055242;28;20048;-68
2022/09/26 13:56:40;;;;;;;1.10;1.00;;;14.80;96.20;;;;;;5048310;28;20044;-68